sensor_id;sensor_type;location;lat;lon;timestamp;P1;durP1;ratioP1;P2;durP2;ratioP2
76964;SDS011;65903;51.452;7.198;2023-03-01T00:00:25;16.20;;;8.13;;
76964;SDS011;65903;51.452;7.198;2023-03-01T00:01:27;11.27;;;7.55;;
76964;SDS011;65903;51.452;7.198;2023-03-01T00:03:32;11.50;;;7.68;;
76964;SDS011;65903;51.452;7.198;2023-03-01T00:04:41;13.50;;;7.55;;
76964;SDS011;65903;51.452;7.198;2023-03-01T00:05:45;11.18;;;7.65;;
76964;SDS011;65903;51.452;7.198;2023-03-01T00:06:46;10.30;;;7.20;;
76964;SDS011;65903;51.452;7.198;2023-03-01T00:07:52;13.15;;;7.88;;
76964;SDS011;65903;51.452;7.198;2023-03-01T00:08:55;10.73;;;8.15;;
76964;SDS011;65903;51.452;7.198;2023-03-01T00:09:58;13.60;;;7.93;;
76964;SDS011;65903;51.452;7.198;2023-03-01T00:12:08;13.38;;;8.27;;
76964;SDS011;65903;51.452;7.198;2023-03-01T00:13:11;11.80;;;7.90;;
76964;SDS011;65903;51.452;7.198;2023-03-01T00:14:12;10.10;;;7.18;;
76964;SDS011;65903;51.452;7.198;2023-03-01T00:15:15;11.80;;;8.55;;
76964;SDS011;65903;51.452;7.198;2023-03-01T00:16:32;10.20;;;7.38;;
76964;SDS011;65903;51.452;7.198;2023-03-01T00:17:34;12.15;;;8.75;;
76964;SDS011;65903;51.452;7.198;2023-03-01T00:18:34;10.70;;;7.65;;
76964;SDS011;65903;51.452;7.198;2023-03-01T00:19:40;11.60;;;8.35;;
76964;SDS011;65903;51.452;7.198;2023-03-01T00:20:41;11.90;;;8.27;;
76964;SDS011;65903;51.452;7.198;2023-03-01T00:21:44;12.38;;;8.20;;
76964;SDS011;65903;51.452;7.198;2023-03-01T00:22:47;13.85;;;7.95;;
76964;SDS011;65903;51.452;7.198;2023-03-01T00:23:48;11.07;;;8.60;;
76964;SDS011;65903;51.452;7.198;2023-03-01T00:24:52;12.60;;;7.95;;
76964;SDS011;65903;51.452;7.198;2023-03-01T00:25:53;12.90;;;8.48;;
76964;SDS011;65903;51.452;7.198;2023-03-01T00:26:54;10.70;;;7.80;;
76964;SDS011;65903;51.452;7.198;2023-03-01T00:27:56;12.85;;;8.80;;
76964;SDS011;65903;51.452;7.198;2023-03-01T00:28:57;10.80;;;8.18;;
76964;SDS011;65903;51.452;7.198;2023-03-01T00:30:00;10.63;;;8.82;;
76964;SDS011;65903;51.452;7.198;2023-03-01T00:31:05;13.65;;;8.70;;
76964;SDS011;65903;51.452;7.198;2023-03-01T00:32:09;11.65;;;8.20;;
76964;SDS011;65903;51.452;7.198;2023-03-01T00:33:13;13.05;;;8.35;;
76964;SDS011;65903;51.452;7.198;2023-03-01T00:34:16;10.65;;;8.02;;
76964;SDS011;65903;51.452;7.198;2023-03-01T00:35:17;10.20;;;7.88;;
76964;SDS011;65903;51.452;7.198;2023-03-01T00:36:20;10.50;;;7.63;;
76964;SDS011;65903;51.452;7.198;2023-03-01T00:37:23;13.18;;;8.40;;
76964;SDS011;65903;51.452;7.198;2023-03-01T00:39:29;10.15;;;7.03;;
76964;SDS011;65903;51.452;7.198;2023-03-01T00:40:33;9.82;;;7.15;;
76964;SDS011;65903;51.452;7.198;2023-03-01T00:41:37;11.27;;;7.38;;
76964;SDS011;65903;51.452;7.198;2023-03-01T00:42:40;9.77;;;7.13;;
76964;SDS011;65903;51.452;7.198;2023-03-01T00:44:45;10.10;;;7.43;;
76964;SDS011;65903;51.452;7.198;2023-03-01T00:45:48;10.02;;;7.43;;
76964;SDS011;65903;51.452;7.198;2023-03-01T00:46:51;15.07;;;7.78;;
76964;SDS011;65903;51.452;7.198;2023-03-01T00:47:52;11.65;;;7.93;;
76964;SDS011;65903;51.452;7.198;2023-03-01T00:48:53;12.18;;;7.72;;
76964;SDS011;65903;51.452;7.198;2023-03-01T00:49:56;10.88;;;7.75;;
76964;SDS011;65903;51.452;7.198;2023-03-01T00:52:14;12.88;;;7.88;;
76964;SDS011;65903;51.452;7.198;2023-03-01T00:53:17;12.15;;;8.30;;
76964;SDS011;65903;51.452;7.198;2023-03-01T00:54:18;12.98;;;8.05;;
76964;SDS011;65903;51.452;7.198;2023-03-01T00:55:24;13.00;;;8.00;;
76964;SDS011;65903;51.452;7.198;2023-03-01T00:56:29;11.07;;;7.93;;
76964;SDS011;65903;51.452;7.198;2023-03-01T00:57:37;13.63;;;7.82;;
76964;SDS011;65903;51.452;7.198;2023-03-01T00:58:41;11.18;;;8.07;;
76964;SDS011;65903;51.452;7.198;2023-03-01T00:59:45;13.55;;;8.38;;
76964;SDS011;65903;51.452;7.198;2023-03-01T01:00:45;14.63;;;9.02;;
76964;SDS011;65903;51.452;7.198;2023-03-01T01:01:48;15.48;;;9.15;;
76964;SDS011;65903;51.452;7.198;2023-03-01T01:02:49;11.07;;;7.85;;
76964;SDS011;65903;51.452;7.198;2023-03-01T01:03:52;10.52;;;7.55;;
76964;SDS011;65903;51.452;7.198;2023-03-01T01:05:06;12.50;;;7.78;;
76964;SDS011;65903;51.452;7.198;2023-03-01T01:06:17;14.68;;;8.40;;
76964;SDS011;65903;51.452;7.198;2023-03-01T01:07:21;11.80;;;8.13;;
76964;SDS011;65903;51.452;7.198;2023-03-01T01:09:27;13.77;;;8.10;;
76964;SDS011;65903;51.452;7.198;2023-03-01T01:10:30;13.57;;;8.00;;
76964;SDS011;65903;51.452;7.198;2023-03-01T01:11:31;11.13;;;7.45;;
76964;SDS011;65903;51.452;7.198;2023-03-01T01:12:32;13.50;;;8.40;;
76964;SDS011;65903;51.452;7.198;2023-03-01T01:13:38;12.77;;;8.60;;
76964;SDS011;65903;51.452;7.198;2023-03-01T01:14:40;11.77;;;8.00;;
76964;SDS011;65903;51.452;7.198;2023-03-01T01:15:43;12.88;;;8.35;;
76964;SDS011;65903;51.452;7.198;2023-03-01T01:17:47;14.25;;;7.45;;
76964;SDS011;65903;51.452;7.198;2023-03-01T01:18:50;14.30;;;7.63;;
76964;SDS011;65903;51.452;7.198;2023-03-01T01:19:56;12.93;;;7.70;;
76964;SDS011;65903;51.452;7.198;2023-03-01T01:20:57;14.00;;;8.02;;
76964;SDS011;65903;51.452;7.198;2023-03-01T01:21:58;11.63;;;8.20;;
76964;SDS011;65903;51.452;7.198;2023-03-01T01:23:01;13.90;;;8.93;;
76964;SDS011;65903;51.452;7.198;2023-03-01T01:24:07;12.02;;;7.53;;
76964;SDS011;65903;51.452;7.198;2023-03-01T01:25:12;12.63;;;7.85;;
76964;SDS011;65903;51.452;7.198;2023-03-01T01:26:20;13.93;;;8.82;;
76964;SDS011;65903;51.452;7.198;2023-03-01T01:27:29;11.48;;;8.82;;
76964;SDS011;65903;51.452;7.198;2023-03-01T01:28:32;15.60;;;7.95;;
76964;SDS011;65903;51.452;7.198;2023-03-01T01:29:37;10.60;;;8.18;;
76964;SDS011;65903;51.452;7.198;2023-03-01T01:30:38;13.02;;;8.30;;
76964;SDS011;65903;51.452;7.198;2023-03-01T01:31:40;15.18;;;8.23;;
76964;SDS011;65903;51.452;7.198;2023-03-01T01:32:42;13.50;;;8.13;;
76964;SDS011;65903;51.452;7.198;2023-03-01T01:33:43;11.50;;;8.95;;
76964;SDS011;65903;51.452;7.198;2023-03-01T01:34:44;13.00;;;9.38;;
76964;SDS011;65903;51.452;7.198;2023-03-01T01:35:47;14.00;;;8.35;;
76964;SDS011;65903;51.452;7.198;2023-03-01T01:36:48;12.23;;;8.50;;
76964;SDS011;65903;51.452;7.198;2023-03-01T01:37:54;11.80;;;8.00;;
76964;SDS011;65903;51.452;7.198;2023-03-01T01:38:58;11.95;;;8.57;;
76964;SDS011;65903;51.452;7.198;2023-03-01T01:40:01;14.73;;;8.32;;
76964;SDS011;65903;51.452;7.198;2023-03-01T01:41:04;13.02;;;8.50;;
76964;SDS011;65903;51.452;7.198;2023-03-01T01:42:13;12.18;;;9.05;;
76964;SDS011;65903;51.452;7.198;2023-03-01T01:43:21;12.15;;;7.93;;
76964;SDS011;65903;51.452;7.198;2023-03-01T01:44:26;11.90;;;7.82;;
76964;SDS011;65903;51.452;7.198;2023-03-01T01:45:31;13.15;;;7.82;;
76964;SDS011;65903;51.452;7.198;2023-03-01T01:46:36;12.43;;;8.20;;
76964;SDS011;65903;51.452;7.198;2023-03-01T01:47:41;11.85;;;8.07;;
76964;SDS011;65903;51.452;7.198;2023-03-01T01:48:46;12.35;;;8.65;;
76964;SDS011;65903;51.452;7.198;2023-03-01T01:49:53;14.00;;;8.95;;
76964;SDS011;65903;51.452;7.198;2023-03-01T01:50:59;9.57;;;7.57;;
76964;SDS011;65903;51.452;7.198;2023-03-01T01:52:11;15.20;;;8.25;;
76964;SDS011;65903;51.452;7.198;2023-03-01T01:53:17;12.13;;;8.20;;
76964;SDS011;65903;51.452;7.198;2023-03-01T01:54:29;12.23;;;8.38;;
76964;SDS011;65903;51.452;7.198;2023-03-01T01:55:34;12.18;;;8.13;;
76964;SDS011;65903;51.452;7.198;2023-03-01T01:56:39;13.02;;;8.32;;
76964;SDS011;65903;51.452;7.198;2023-03-01T01:57:43;12.95;;;7.85;;
76964;SDS011;65903;51.452;7.198;2023-03-01T01:58:50;11.07;;;7.88;;
76964;SDS011;65903;51.452;7.198;2023-03-01T01:59:55;15.20;;;8.00;;
76964;SDS011;65903;51.452;7.198;2023-03-01T02:01:00;13.20;;;8.38;;
76964;SDS011;65903;51.452;7.198;2023-03-01T02:02:03;17.42;;;8.98;;
76964;SDS011;65903;51.452;7.198;2023-03-01T02:03:08;12.45;;;7.40;;
76964;SDS011;65903;51.452;7.198;2023-03-01T02:04:12;12.77;;;8.45;;
76964;SDS011;65903;51.452;7.198;2023-03-01T02:06:19;12.80;;;7.97;;
76964;SDS011;65903;51.452;7.198;2023-03-01T02:07:23;13.35;;;8.40;;
76964;SDS011;65903;51.452;7.198;2023-03-01T02:08:26;11.43;;;8.20;;
76964;SDS011;65903;51.452;7.198;2023-03-01T02:09:27;14.85;;;9.15;;
76964;SDS011;65903;51.452;7.198;2023-03-01T02:10:28;11.75;;;7.63;;
76964;SDS011;65903;51.452;7.198;2023-03-01T02:11:33;12.00;;;7.85;;
76964;SDS011;65903;51.452;7.198;2023-03-01T02:12:34;13.52;;;8.90;;
76964;SDS011;65903;51.452;7.198;2023-03-01T02:13:37;12.15;;;8.75;;
76964;SDS011;65903;51.452;7.198;2023-03-01T02:14:40;12.98;;;8.88;;
76964;SDS011;65903;51.452;7.198;2023-03-01T02:15:43;11.20;;;7.80;;
76964;SDS011;65903;51.452;7.198;2023-03-01T02:16:45;11.38;;;7.85;;
76964;SDS011;65903;51.452;7.198;2023-03-01T02:17:46;13.18;;;8.75;;
76964;SDS011;65903;51.452;7.198;2023-03-01T02:18:47;15.20;;;8.30;;
76964;SDS011;65903;51.452;7.198;2023-03-01T02:19:58;14.30;;;8.98;;
76964;SDS011;65903;51.452;7.198;2023-03-01T02:22:25;13.18;;;8.27;;
76964;SDS011;65903;51.452;7.198;2023-03-01T02:23:34;14.70;;;8.77;;
76964;SDS011;65903;51.452;7.198;2023-03-01T02:27:01;13.35;;;8.38;;
76964;SDS011;65903;51.452;7.198;2023-03-01T02:29:16;11.68;;;7.97;;
76964;SDS011;65903;51.452;7.198;2023-03-01T02:30:20;17.00;;;9.18;;
76964;SDS011;65903;51.452;7.198;2023-03-01T02:31:22;12.68;;;8.77;;
76964;SDS011;65903;51.452;7.198;2023-03-01T02:32:41;12.90;;;9.20;;
76964;SDS011;65903;51.452;7.198;2023-03-01T02:33:45;14.00;;;8.95;;
76964;SDS011;65903;51.452;7.198;2023-03-01T02:34:56;11.82;;;8.43;;
76964;SDS011;65903;51.452;7.198;2023-03-01T02:36:00;19.42;;;8.52;;
76964;SDS011;65903;51.452;7.198;2023-03-01T02:37:07;13.57;;;9.05;;
76964;SDS011;65903;51.452;7.198;2023-03-01T02:38:12;14.88;;;8.32;;
76964;SDS011;65903;51.452;7.198;2023-03-01T02:39:18;12.80;;;8.68;;
76964;SDS011;65903;51.452;7.198;2023-03-01T02:40:22;16.85;;;8.77;;
76964;SDS011;65903;51.452;7.198;2023-03-01T02:41:23;13.05;;;8.85;;
76964;SDS011;65903;51.452;7.198;2023-03-01T02:42:30;12.30;;;8.82;;
76964;SDS011;65903;51.452;7.198;2023-03-01T02:43:38;12.48;;;8.82;;
76964;SDS011;65903;51.452;7.198;2023-03-01T02:44:44;13.15;;;9.13;;
76964;SDS011;65903;51.452;7.198;2023-03-01T02:45:49;12.00;;;8.63;;
76964;SDS011;65903;51.452;7.198;2023-03-01T02:46:55;14.43;;;8.55;;
76964;SDS011;65903;51.452;7.198;2023-03-01T02:47:56;13.25;;;9.48;;
76964;SDS011;65903;51.452;7.198;2023-03-01T02:48:58;11.77;;;9.20;;
76964;SDS011;65903;51.452;7.198;2023-03-01T02:49:59;16.10;;;9.23;;
76964;SDS011;65903;51.452;7.198;2023-03-01T02:52:07;19.33;;;8.50;;
76964;SDS011;65903;51.452;7.198;2023-03-01T02:55:48;13.05;;;8.05;;
76964;SDS011;65903;51.452;7.198;2023-03-01T02:56:49;12.30;;;8.35;;
76964;SDS011;65903;51.452;7.198;2023-03-01T02:57:52;15.75;;;8.85;;
76964;SDS011;65903;51.452;7.198;2023-03-01T02:58:54;15.43;;;8.90;;
76964;SDS011;65903;51.452;7.198;2023-03-01T02:59:55;13.63;;;7.97;;
76964;SDS011;65903;51.452;7.198;2023-03-01T03:00:59;12.57;;;8.75;;
76964;SDS011;65903;51.452;7.198;2023-03-01T03:02:02;11.07;;;7.82;;
76964;SDS011;65903;51.452;7.198;2023-03-01T03:03:05;14.55;;;8.70;;
76964;SDS011;65903;51.452;7.198;2023-03-01T03:04:16;14.45;;;8.63;;
76964;SDS011;65903;51.452;7.198;2023-03-01T03:05:19;12.90;;;8.20;;
76964;SDS011;65903;51.452;7.198;2023-03-01T03:06:23;14.70;;;8.88;;
76964;SDS011;65903;51.452;7.198;2023-03-01T03:07:27;15.90;;;8.93;;
76964;SDS011;65903;51.452;7.198;2023-03-01T03:08:32;12.63;;;8.18;;
76964;SDS011;65903;51.452;7.198;2023-03-01T03:09:33;13.93;;;9.10;;
76964;SDS011;65903;51.452;7.198;2023-03-01T03:10:38;13.13;;;8.18;;
76964;SDS011;65903;51.452;7.198;2023-03-01T03:11:43;13.27;;;8.15;;
76964;SDS011;65903;51.452;7.198;2023-03-01T03:12:48;11.73;;;8.32;;
76964;SDS011;65903;51.452;7.198;2023-03-01T03:14:01;12.98;;;9.02;;
76964;SDS011;65903;51.452;7.198;2023-03-01T03:15:04;13.52;;;8.82;;
76964;SDS011;65903;51.452;7.198;2023-03-01T03:16:09;15.27;;;8.40;;
76964;SDS011;65903;51.452;7.198;2023-03-01T03:17:14;15.30;;;9.13;;
76964;SDS011;65903;51.452;7.198;2023-03-01T03:18:16;14.32;;;8.95;;
76964;SDS011;65903;51.452;7.198;2023-03-01T03:19:18;13.15;;;8.75;;
76964;SDS011;65903;51.452;7.198;2023-03-01T03:20:20;14.20;;;9.10;;
76964;SDS011;65903;51.452;7.198;2023-03-01T03:21:22;13.52;;;9.30;;
76964;SDS011;65903;51.452;7.198;2023-03-01T03:22:27;13.38;;;8.75;;
76964;SDS011;65903;51.452;7.198;2023-03-01T03:23:29;14.32;;;8.65;;
76964;SDS011;65903;51.452;7.198;2023-03-01T03:24:32;11.98;;;9.23;;
76964;SDS011;65903;51.452;7.198;2023-03-01T03:25:38;12.93;;;8.57;;
76964;SDS011;65903;51.452;7.198;2023-03-01T03:26:41;14.10;;;8.98;;
76964;SDS011;65903;51.452;7.198;2023-03-01T03:27:45;12.85;;;8.65;;
76964;SDS011;65903;51.452;7.198;2023-03-01T03:28:47;14.15;;;9.05;;
76964;SDS011;65903;51.452;7.198;2023-03-01T03:29:53;15.55;;;8.70;;
76964;SDS011;65903;51.452;7.198;2023-03-01T03:30:54;13.35;;;8.90;;
76964;SDS011;65903;51.452;7.198;2023-03-01T03:31:55;13.77;;;9.52;;
76964;SDS011;65903;51.452;7.198;2023-03-01T03:32:56;13.10;;;8.80;;
76964;SDS011;65903;51.452;7.198;2023-03-01T03:34:00;15.80;;;9.90;;
76964;SDS011;65903;51.452;7.198;2023-03-01T03:35:04;13.43;;;9.10;;
76964;SDS011;65903;51.452;7.198;2023-03-01T03:36:15;12.55;;;8.85;;
76964;SDS011;65903;51.452;7.198;2023-03-01T03:37:20;14.85;;;9.02;;
76964;SDS011;65903;51.452;7.198;2023-03-01T03:38:47;14.45;;;9.20;;
76964;SDS011;65903;51.452;7.198;2023-03-01T03:39:51;12.93;;;9.30;;
76964;SDS011;65903;51.452;7.198;2023-03-01T03:41:02;14.43;;;9.13;;
76964;SDS011;65903;51.452;7.198;2023-03-01T03:42:07;15.00;;;9.23;;
76964;SDS011;65903;51.452;7.198;2023-03-01T03:43:13;12.38;;;8.90;;
76964;SDS011;65903;51.452;7.198;2023-03-01T03:44:17;13.50;;;8.68;;
76964;SDS011;65903;51.452;7.198;2023-03-01T03:45:18;14.85;;;9.40;;
76964;SDS011;65903;51.452;7.198;2023-03-01T03:46:21;15.68;;;8.68;;
76964;SDS011;65903;51.452;7.198;2023-03-01T03:47:25;14.68;;;8.93;;
76964;SDS011;65903;51.452;7.198;2023-03-01T03:48:26;11.80;;;8.73;;
76964;SDS011;65903;51.452;7.198;2023-03-01T03:49:27;13.30;;;8.80;;
76964;SDS011;65903;51.452;7.198;2023-03-01T03:50:30;13.57;;;8.10;;
76964;SDS011;65903;51.452;7.198;2023-03-01T03:51:31;14.35;;;9.48;;
76964;SDS011;65903;51.452;7.198;2023-03-01T03:52:32;15.15;;;9.38;;
76964;SDS011;65903;51.452;7.198;2023-03-01T03:53:33;12.98;;;8.63;;
76964;SDS011;65903;51.452;7.198;2023-03-01T03:54:36;15.38;;;9.15;;
76964;SDS011;65903;51.452;7.198;2023-03-01T03:55:37;13.27;;;8.75;;
76964;SDS011;65903;51.452;7.198;2023-03-01T03:56:47;15.30;;;9.23;;
76964;SDS011;65903;51.452;7.198;2023-03-01T03:57:50;14.82;;;9.20;;
76964;SDS011;65903;51.452;7.198;2023-03-01T03:58:56;14.13;;;8.98;;
76964;SDS011;65903;51.452;7.198;2023-03-01T03:59:59;13.32;;;8.60;;
76964;SDS011;65903;51.452;7.198;2023-03-01T04:01:05;14.55;;;9.57;;
76964;SDS011;65903;51.452;7.198;2023-03-01T04:02:08;13.50;;;8.77;;
76964;SDS011;65903;51.452;7.198;2023-03-01T04:03:22;14.63;;;8.77;;
76964;SDS011;65903;51.452;7.198;2023-03-01T04:04:24;15.27;;;8.82;;
76964;SDS011;65903;51.452;7.198;2023-03-01T04:05:27;14.13;;;9.07;;
76964;SDS011;65903;51.452;7.198;2023-03-01T04:06:28;13.45;;;9.32;;
76964;SDS011;65903;51.452;7.198;2023-03-01T04:07:32;13.93;;;8.93;;
76964;SDS011;65903;51.452;7.198;2023-03-01T04:08:35;15.57;;;8.98;;
76964;SDS011;65903;51.452;7.198;2023-03-01T04:09:36;13.38;;;8.55;;
76964;SDS011;65903;51.452;7.198;2023-03-01T04:10:43;14.30;;;9.25;;
76964;SDS011;65903;51.452;7.198;2023-03-01T04:11:50;14.68;;;8.65;;
76964;SDS011;65903;51.452;7.198;2023-03-01T04:12:50;13.02;;;8.30;;
76964;SDS011;65903;51.452;7.198;2023-03-01T04:13:59;11.82;;;8.52;;
76964;SDS011;65903;51.452;7.198;2023-03-01T04:15:00;14.27;;;9.05;;
76964;SDS011;65903;51.452;7.198;2023-03-01T04:16:12;18.70;;;9.10;;
76964;SDS011;65903;51.452;7.198;2023-03-01T04:17:16;14.77;;;9.43;;
76964;SDS011;65903;51.452;7.198;2023-03-01T04:18:21;13.77;;;8.23;;
76964;SDS011;65903;51.452;7.198;2023-03-01T04:19:27;12.27;;;8.70;;
76964;SDS011;65903;51.452;7.198;2023-03-01T04:20:38;16.42;;;8.77;;
76964;SDS011;65903;51.452;7.198;2023-03-01T04:21:44;15.07;;;8.98;;
76964;SDS011;65903;51.452;7.198;2023-03-01T04:22:44;15.43;;;9.80;;
76964;SDS011;65903;51.452;7.198;2023-03-01T04:23:48;19.92;;;10.27;;
76964;SDS011;65903;51.452;7.198;2023-03-01T04:24:54;12.45;;;8.93;;
76964;SDS011;65903;51.452;7.198;2023-03-01T04:26:01;14.95;;;9.45;;
76964;SDS011;65903;51.452;7.198;2023-03-01T04:27:02;14.07;;;9.48;;
76964;SDS011;65903;51.452;7.198;2023-03-01T04:28:03;14.88;;;9.52;;
76964;SDS011;65903;51.452;7.198;2023-03-01T04:29:04;12.75;;;9.25;;
76964;SDS011;65903;51.452;7.198;2023-03-01T04:30:05;14.50;;;8.70;;
76964;SDS011;65903;51.452;7.198;2023-03-01T04:31:13;15.85;;;9.43;;
76964;SDS011;65903;51.452;7.198;2023-03-01T04:32:17;14.07;;;8.60;;
76964;SDS011;65903;51.452;7.198;2023-03-01T04:33:20;16.17;;;8.65;;
76964;SDS011;65903;51.452;7.198;2023-03-01T04:34:26;14.82;;;7.97;;
76964;SDS011;65903;51.452;7.198;2023-03-01T04:35:27;15.55;;;9.70;;
76964;SDS011;65903;51.452;7.198;2023-03-01T04:36:28;16.48;;;10.75;;
76964;SDS011;65903;51.452;7.198;2023-03-01T04:37:29;13.60;;;9.38;;
76964;SDS011;65903;51.452;7.198;2023-03-01T04:38:30;16.88;;;8.73;;
76964;SDS011;65903;51.452;7.198;2023-03-01T04:39:31;14.82;;;9.50;;
76964;SDS011;65903;51.452;7.198;2023-03-01T04:40:45;14.48;;;8.93;;
76964;SDS011;65903;51.452;7.198;2023-03-01T04:41:47;12.88;;;8.52;;
76964;SDS011;65903;51.452;7.198;2023-03-01T04:42:48;14.80;;;9.65;;
76964;SDS011;65903;51.452;7.198;2023-03-01T04:43:51;19.73;;;10.20;;
76964;SDS011;65903;51.452;7.198;2023-03-01T04:44:52;12.32;;;8.82;;
76964;SDS011;65903;51.452;7.198;2023-03-01T04:45:59;13.55;;;8.68;;
76964;SDS011;65903;51.452;7.198;2023-03-01T04:47:05;15.68;;;9.73;;
76964;SDS011;65903;51.452;7.198;2023-03-01T04:48:13;13.60;;;9.43;;
76964;SDS011;65903;51.452;7.198;2023-03-01T04:49:16;13.18;;;9.80;;
76964;SDS011;65903;51.452;7.198;2023-03-01T04:51:20;12.05;;;8.25;;
76964;SDS011;65903;51.452;7.198;2023-03-01T04:52:24;15.05;;;9.70;;
76964;SDS011;65903;51.452;7.198;2023-03-01T04:53:32;15.00;;;9.60;;
76964;SDS011;65903;51.452;7.198;2023-03-01T04:54:33;14.77;;;8.98;;
76964;SDS011;65903;51.452;7.198;2023-03-01T04:55:35;14.55;;;8.75;;
76964;SDS011;65903;51.452;7.198;2023-03-01T04:56:35;14.80;;;9.40;;
76964;SDS011;65903;51.452;7.198;2023-03-01T04:57:41;13.55;;;9.05;;
76964;SDS011;65903;51.452;7.198;2023-03-01T04:59:47;16.75;;;9.27;;
76964;SDS011;65903;51.452;7.198;2023-03-01T05:01:52;14.18;;;8.57;;
76964;SDS011;65903;51.452;7.198;2023-03-01T05:02:57;13.63;;;9.38;;
76964;SDS011;65903;51.452;7.198;2023-03-01T05:04:03;13.25;;;9.02;;
76964;SDS011;65903;51.452;7.198;2023-03-01T05:05:06;13.63;;;9.15;;
76964;SDS011;65903;51.452;7.198;2023-03-01T05:06:07;17.27;;;9.43;;
76964;SDS011;65903;51.452;7.198;2023-03-01T05:07:10;16.15;;;8.98;;
76964;SDS011;65903;51.452;7.198;2023-03-01T05:08:13;15.00;;;9.63;;
76964;SDS011;65903;51.452;7.198;2023-03-01T05:09:17;15.70;;;10.05;;
76964;SDS011;65903;51.452;7.198;2023-03-01T05:10:21;16.25;;;9.48;;
76964;SDS011;65903;51.452;7.198;2023-03-01T05:11:24;16.20;;;10.45;;
76964;SDS011;65903;51.452;7.198;2023-03-01T05:12:25;12.00;;;8.75;;
76964;SDS011;65903;51.452;7.198;2023-03-01T05:13:26;16.90;;;9.02;;
76964;SDS011;65903;51.452;7.198;2023-03-01T05:14:29;14.60;;;8.63;;
76964;SDS011;65903;51.452;7.198;2023-03-01T05:15:30;13.60;;;8.40;;
76964;SDS011;65903;51.452;7.198;2023-03-01T05:16:31;13.05;;;8.75;;
76964;SDS011;65903;51.452;7.198;2023-03-01T05:17:36;15.77;;;9.43;;
76964;SDS011;65903;51.452;7.198;2023-03-01T05:18:37;15.73;;;9.65;;
76964;SDS011;65903;51.452;7.198;2023-03-01T05:19:41;15.80;;;9.40;;
76964;SDS011;65903;51.452;7.198;2023-03-01T05:20:43;16.63;;;10.00;;
76964;SDS011;65903;51.452;7.198;2023-03-01T05:21:45;14.13;;;9.48;;
76964;SDS011;65903;51.452;7.198;2023-03-01T05:23:07;13.27;;;8.20;;
76964;SDS011;65903;51.452;7.198;2023-03-01T05:24:13;15.15;;;9.82;;
76964;SDS011;65903;51.452;7.198;2023-03-01T05:26:19;13.57;;;8.32;;
76964;SDS011;65903;51.452;7.198;2023-03-01T05:27:24;15.18;;;9.63;;
76964;SDS011;65903;51.452;7.198;2023-03-01T05:28:30;15.38;;;9.38;;
76964;SDS011;65903;51.452;7.198;2023-03-01T05:29:31;17.48;;;8.77;;
76964;SDS011;65903;51.452;7.198;2023-03-01T05:30:35;14.55;;;9.05;;
76964;SDS011;65903;51.452;7.198;2023-03-01T05:31:36;15.85;;;9.30;;
76964;SDS011;65903;51.452;7.198;2023-03-01T05:32:43;13.23;;;8.85;;
76964;SDS011;65903;51.452;7.198;2023-03-01T05:33:47;13.77;;;9.15;;
76964;SDS011;65903;51.452;7.198;2023-03-01T05:34:48;15.82;;;9.32;;
76964;SDS011;65903;51.452;7.198;2023-03-01T05:35:49;14.45;;;9.40;;
76964;SDS011;65903;51.452;7.198;2023-03-01T05:36:52;14.57;;;9.30;;
76964;SDS011;65903;51.452;7.198;2023-03-01T05:37:53;13.93;;;9.38;;
76964;SDS011;65903;51.452;7.198;2023-03-01T05:38:54;15.65;;;9.93;;
76964;SDS011;65903;51.452;7.198;2023-03-01T05:40:58;13.80;;;8.40;;
76964;SDS011;65903;51.452;7.198;2023-03-01T05:41:59;15.50;;;9.60;;
76964;SDS011;65903;51.452;7.198;2023-03-01T05:43:01;15.65;;;9.55;;
76964;SDS011;65903;51.452;7.198;2023-03-01T05:44:06;14.73;;;9.40;;
76964;SDS011;65903;51.452;7.198;2023-03-01T05:45:09;15.23;;;9.40;;
76964;SDS011;65903;51.452;7.198;2023-03-01T05:46:13;18.27;;;9.38;;
76964;SDS011;65903;51.452;7.198;2023-03-01T05:47:16;16.75;;;9.25;;
76964;SDS011;65903;51.452;7.198;2023-03-01T05:48:19;13.85;;;9.15;;
76964;SDS011;65903;51.452;7.198;2023-03-01T05:49:20;15.00;;;9.10;;
76964;SDS011;65903;51.452;7.198;2023-03-01T05:50:26;18.13;;;9.95;;
76964;SDS011;65903;51.452;7.198;2023-03-01T05:51:28;16.50;;;10.00;;
76964;SDS011;65903;51.452;7.198;2023-03-01T05:52:33;13.75;;;8.82;;
76964;SDS011;65903;51.452;7.198;2023-03-01T05:53:34;14.73;;;9.93;;
76964;SDS011;65903;51.452;7.198;2023-03-01T05:54:37;17.60;;;9.63;;
76964;SDS011;65903;51.452;7.198;2023-03-01T05:55:38;17.85;;;9.77;;
76964;SDS011;65903;51.452;7.198;2023-03-01T05:56:43;15.63;;;9.50;;
76964;SDS011;65903;51.452;7.198;2023-03-01T05:57:46;13.82;;;9.50;;
76964;SDS011;65903;51.452;7.198;2023-03-01T05:58:48;16.55;;;9.88;;
76964;SDS011;65903;51.452;7.198;2023-03-01T05:59:51;17.67;;;10.43;;
76964;SDS011;65903;51.452;7.198;2023-03-01T06:00:52;14.65;;;9.65;;
76964;SDS011;65903;51.452;7.198;2023-03-01T06:01:52;13.27;;;9.55;;
76964;SDS011;65903;51.452;7.198;2023-03-01T06:02:56;15.60;;;9.95;;
76964;SDS011;65903;51.452;7.198;2023-03-01T06:04:00;16.42;;;9.13;;
76964;SDS011;65903;51.452;7.198;2023-03-01T06:05:05;13.88;;;9.45;;
76964;SDS011;65903;51.452;7.198;2023-03-01T06:06:07;15.73;;;9.30;;
76964;SDS011;65903;51.452;7.198;2023-03-01T06:07:08;15.10;;;9.25;;
76964;SDS011;65903;51.452;7.198;2023-03-01T06:08:11;16.13;;;9.50;;
76964;SDS011;65903;51.452;7.198;2023-03-01T06:09:12;16.17;;;9.52;;
76964;SDS011;65903;51.452;7.198;2023-03-01T06:10:15;17.02;;;9.82;;
76964;SDS011;65903;51.452;7.198;2023-03-01T06:11:16;20.27;;;9.63;;
76964;SDS011;65903;51.452;7.198;2023-03-01T06:12:17;14.93;;;9.55;;
76964;SDS011;65903;51.452;7.198;2023-03-01T06:14:24;15.05;;;8.38;;
76964;SDS011;65903;51.452;7.198;2023-03-01T06:15:27;18.30;;;9.52;;
76964;SDS011;65903;51.452;7.198;2023-03-01T06:16:33;16.45;;;9.43;;
76964;SDS011;65903;51.452;7.198;2023-03-01T06:17:34;13.52;;;9.25;;
76964;SDS011;65903;51.452;7.198;2023-03-01T06:18:38;19.92;;;10.25;;
76964;SDS011;65903;51.452;7.198;2023-03-01T06:19:41;15.10;;;9.10;;
76964;SDS011;65903;51.452;7.198;2023-03-01T06:20:42;15.95;;;9.85;;
76964;SDS011;65903;51.452;7.198;2023-03-01T06:21:43;16.70;;;9.52;;
76964;SDS011;65903;51.452;7.198;2023-03-01T06:22:44;14.02;;;8.88;;
76964;SDS011;65903;51.452;7.198;2023-03-01T06:23:47;15.52;;;9.88;;
76964;SDS011;65903;51.452;7.198;2023-03-01T06:24:54;16.83;;;9.73;;
76964;SDS011;65903;51.452;7.198;2023-03-01T06:25:57;16.20;;;9.80;;
76964;SDS011;65903;51.452;7.198;2023-03-01T06:27:00;15.80;;;9.45;;
76964;SDS011;65903;51.452;7.198;2023-03-01T06:28:03;19.55;;;10.35;;
76964;SDS011;65903;51.452;7.198;2023-03-01T06:29:04;20.40;;;10.82;;
76964;SDS011;65903;51.452;7.198;2023-03-01T06:30:11;16.38;;;9.98;;
76964;SDS011;65903;51.452;7.198;2023-03-01T06:31:16;16.23;;;9.63;;
76964;SDS011;65903;51.452;7.198;2023-03-01T06:32:19;17.70;;;9.38;;
76964;SDS011;65903;51.452;7.198;2023-03-01T06:33:25;14.23;;;9.52;;
76964;SDS011;65903;51.452;7.198;2023-03-01T06:34:28;16.50;;;9.77;;
76964;SDS011;65903;51.452;7.198;2023-03-01T06:35:31;17.30;;;9.15;;
76964;SDS011;65903;51.452;7.198;2023-03-01T06:36:32;16.13;;;9.98;;
76964;SDS011;65903;51.452;7.198;2023-03-01T06:37:33;14.65;;;9.82;;
76964;SDS011;65903;51.452;7.198;2023-03-01T06:38:41;16.92;;;9.52;;
76964;SDS011;65903;51.452;7.198;2023-03-01T06:39:42;16.40;;;9.68;;
76964;SDS011;65903;51.452;7.198;2023-03-01T06:40:42;15.55;;;9.43;;
76964;SDS011;65903;51.452;7.198;2023-03-01T06:41:44;16.60;;;10.05;;